Terminal Aerodrome Forecast
Issued by NWS

Home | Current Version | Previous Version | Text Only | Print | Product List | Glossary On
Versions: 1 2 3 4 5 6 7 8 9 10 11 12 13 14 15 16 17
000
FTUS45 KFGZ 232000 AAA
TAFSEZ
TAF AMD
KSEZ 232057Z 2321/2418 20007KT P6SM BKN100
      TEMPO 2321/2323 VRB20G30KT -TSRA OVC080CB
     FM240230 VRB05KT P6SM BKN100=

USA.gov is the U.S. government's official web portal to all federal, state and local government web resources and services.